Time;durP1;ratioP1;P1;durP2;ratioP2;P2;SDS_P1;SDS_P2;PMS_P1;PMS_P2;Temp;Humidity;BMP_temperature;BMP_pressure;BME280_temperature;BME280_humidity;BME280_pressure;Samples;Min_cycle;Max_cycle;Signal;HPM_P1;HPM_P2
2023/11/12 00:01:40;;;;;;;8.55;5.38;;;8.70;99.90;;;;;;5095071;28;20431;-68
2023/11/12 00:04:06;;;;;;;7.15;4.68;;;8.70;99.90;;;;;;5101360;28;20089;-68
2023/11/12 00:06:32;;;;;;;12.85;4.82;;;8.70;99.90;;;;;;5094586;28;20118;-68
2023/11/12 00:08:58;;;;;;;6.50;4.40;;;8.70;99.90;;;;;;5101521;28;20028;-68
2023/11/12 00:11:25;;;;;;;12.13;5.65;;;8.70;99.90;;;;;;5095584;28;20028;-67
2023/11/12 00:13:51;;;;;;;13.07;4.55;;;8.60;99.90;;;;;;5101384;28;20027;-68
2023/11/12 00:16:17;;;;;;;12.30;4.72;;;8.60;99.90;;;;;;5096442;28;20042;-68
2023/11/12 00:18:42;;;;;;;9.07;4.68;;;8.40;99.90;;;;;;5096853;28;20032;-68
2023/11/12 00:21:08;;;;;;;6.50;4.15;;;8.30;99.90;;;;;;5098878;28;20028;-68
2023/11/12 00:23:36;;;;;;;10.43;4.50;;;8.30;99.90;;;;;;5101252;28;20127;-68
2023/11/12 00:26:02;;;;;;;7.50;4.45;;;8.30;99.90;;;;;;5098460;28;20019;-68
2023/11/12 00:28:28;;;;;;;9.68;4.22;;;8.40;99.90;;;;;;5098912;28;20047;-68
2023/11/12 00:30:55;;;;;;;6.45;4.15;;;8.40;99.90;;;;;;5103753;28;20032;-68
2023/11/12 00:33:21;;;;;;;10.32;5.15;;;8.40;99.90;;;;;;5095892;28;20032;-67
2023/11/12 00:35:47;;;;;;;6.55;4.35;;;8.40;99.90;;;;;;5095525;28;20567;-68
2023/11/12 00:38:13;;;;;;;8.95;4.32;;;8.40;99.90;;;;;;5099722;28;20102;-68
2023/11/12 00:40:39;;;;;;;7.50;4.35;;;8.40;99.90;;;;;;5097573;28;20107;-68
2023/11/12 00:43:05;;;;;;;7.72;4.65;;;8.50;99.90;;;;;;5092382;28;20039;-68
2023/11/12 00:45:31;;;;;;;7.22;3.97;;;8.50;99.90;;;;;;5097608;28;20043;-68
2023/11/12 00:47:57;;;;;;;7.78;4.38;;;8.40;99.90;;;;;;5096930;28;20032;-68
2023/11/12 00:50:23;;;;;;;6.93;4.50;;;8.30;99.90;;;;;;5098169;28;20113;-68
2023/11/12 00:52:49;;;;;;;8.82;3.72;;;8.40;99.90;;;;;;5095837;28;20040;-68
2023/11/12 00:55:15;;;;;;;8.73;4.50;;;8.30;99.90;;;;;;5098303;28;20038;-68
2023/11/12 00:57:41;;;;;;;8.30;4.18;;;8.40;99.90;;;;;;5099233;28;20081;-68
2023/11/12 01:00:08;;;;;;;5.03;3.72;;;8.20;99.90;;;;;;5098150;28;20028;-66
2023/11/12 01:02:34;;;;;;;6.13;4.10;;;8.20;99.90;;;;;;5095506;28;20112;-67
2023/11/12 01:05:00;;;;;;;6.80;3.80;;;8.30;99.90;;;;;;5097347;28;20024;-66
2023/11/12 01:07:26;;;;;;;5.32;3.80;;;8.40;99.90;;;;;;5096040;28;20028;-67
2023/11/12 01:09:52;;;;;;;9.57;4.63;;;8.40;99.90;;;;;;5097806;28;20053;-67
2023/11/12 01:12:19;;;;;;;9.82;3.97;;;8.40;99.90;;;;;;5093492;28;20024;-66
2023/11/12 01:14:45;;;;;;;4.63;3.33;;;8.40;99.90;;;;;;5099689;28;20447;-66
2023/11/12 01:17:12;;;;;;;6.75;4.20;;;8.30;99.90;;;;;;5098718;28;20037;-66
2023/11/12 01:19:39;;;;;;;5.40;3.42;;;8.30;99.90;;;;;;5100362;28;20111;-66
2023/11/12 01:22:05;;;;;;;5.05;3.58;;;8.40;99.90;;;;;;5097889;28;20024;-67
2023/11/12 01:24:32;;;;;;;6.68;3.88;;;8.50;99.90;;;;;;5098992;28;20789;-66
2023/11/12 01:26:58;;;;;;;6.40;3.88;;;8.50;99.90;;;;;;5098940;28;20038;-67
2023/11/12 01:29:25;;;;;;;5.35;3.67;;;8.50;99.90;;;;;;5096994;28;20024;-66
2023/11/12 01:31:51;;;;;;;6.78;4.25;;;8.60;99.90;;;;;;5098210;28;20848;-67
2023/11/12 01:34:17;;;;;;;7.03;4.18;;;8.60;99.90;;;;;;5101100;28;20102;-66
2023/11/12 01:36:42;;;;;;;6.50;3.65;;;8.60;99.90;;;;;;5096821;28;20492;-67
2023/11/12 01:39:08;;;;;;;6.22;4.00;;;8.60;99.90;;;;;;5100692;28;20624;-67
2023/11/12 01:41:34;;;;;;;7.32;4.22;;;8.60;99.90;;;;;;5098734;28;20027;-67
2023/11/12 01:44:01;;;;;;;5.53;3.33;;;8.60;99.90;;;;;;5098379;28;20032;-66
2023/11/12 01:46:27;;;;;;;5.13;3.65;;;8.60;99.90;;;;;;5100300;28;20131;-66
2023/11/12 01:48:57;;;;;;;6.03;3.72;;;8.70;99.90;;;;;;5101489;28;20730;-67
2023/11/12 01:51:24;;;;;;;4.70;3.40;;;8.60;99.90;;;;;;5098519;28;20035;-67
2023/11/12 01:53:51;;;;;;;7.80;4.50;;;8.60;99.90;;;;;;5098636;28;20040;-67
2023/11/12 01:56:19;;;;;;;5.13;3.63;;;8.60;99.90;;;;;;5096229;28;20127;-67
2023/11/12 01:58:45;;;;;;;4.45;3.20;;;8.60;99.90;;;;;;5098657;28;20071;-66
2023/11/12 02:01:12;;;;;;;6.50;4.13;;;8.60;99.90;;;;;;5104118;28;20020;-66
2023/11/12 02:03:41;;;;;;;5.03;3.58;;;8.60;99.90;;;;;;5097072;28;20058;-67
2023/11/12 02:06:08;;;;;;;4.30;3.25;;;8.70;99.90;;;;;;5100261;28;20391;-66
2023/11/12 02:08:40;;;;;;;5.70;3.08;;;8.70;99.90;;;;;;5098722;27;20028;-66
2023/11/12 02:11:09;;;;;;;5.60;3.55;;;8.70;99.90;;;;;;5096859;28;20080;-66
2023/11/12 02:13:42;;;;;;;4.15;3.00;;;8.80;99.90;;;;;;5115982;27;20108;-66
2023/11/12 02:16:09;;;;;;;4.80;2.92;;;8.80;99.90;;;;;;5099586;28;20080;-66
2023/11/12 02:18:35;;;;;;;4.38;3.47;;;8.80;99.90;;;;;;5096522;28;20046;-67
2023/11/12 02:21:03;;;;;;;5.28;3.63;;;8.80;99.90;;;;;;5101674;28;20035;-67
2023/11/12 02:23:30;;;;;;;4.40;3.08;;;8.80;99.90;;;;;;5096282;28;20019;-67
2023/11/12 02:25:58;;;;;;;3.92;2.90;;;8.80;99.90;;;;;;5099494;28;20024;-67
2023/11/12 02:28:23;;;;;;;6.32;3.17;;;8.80;99.90;;;;;;5097399;28;20096;-67
2023/11/12 02:30:53;;;;;;;4.68;3.50;;;8.80;99.90;;;;;;5099575;28;20500;-67
2023/11/12 02:33:27;;;;;;;4.57;2.72;;;8.90;99.90;;;;;;5101611;27;20036;-67
2023/11/12 02:35:55;;;;;;;6.93;3.90;;;8.80;99.90;;;;;;5093563;28;20028;-67
2023/11/12 02:38:23;;;;;;;5.95;3.90;;;8.80;99.90;;;;;;5097308;28;20023;-66
2023/11/12 02:40:49;;;;;;;5.57;3.30;;;8.80;99.90;;;;;;5099693;28;20024;-66
2023/11/12 02:43:16;;;;;;;4.38;3.30;;;8.70;99.90;;;;;;5097954;28;20682;-66
2023/11/12 02:45:42;;;;;;;7.50;3.47;;;8.70;99.90;;;;;;5098537;28;20043;-67
2023/11/12 02:48:08;;;;;;;5.30;3.40;;;8.70;99.90;;;;;;5097082;28;20023;-66
2023/11/12 02:50:35;;;;;;;5.97;3.80;;;8.60;99.90;;;;;;5100976;28;20102;-67
2023/11/12 02:53:04;;;;;;;5.80;3.53;;;8.70;99.90;;;;;;5096815;28;20636;-66
2023/11/12 02:55:31;;;;;;;5.25;3.50;;;8.70;99.90;;;;;;5099762;28;20050;-67
2023/11/12 02:57:57;;;;;;;5.40;3.38;;;8.70;99.90;;;;;;5096886;28;20413;-67
2023/11/12 03:00:27;;;;;;;5.95;3.40;;;8.70;99.90;;;;;;5101939;28;20050;-66
2023/11/12 03:02:58;;;;;;;4.30;3.10;;;8.70;99.90;;;;;;5093677;28;20688;-66
2023/11/12 03:05:25;;;;;;;5.00;3.20;;;8.60;99.90;;;;;;5099228;28;20559;-66
2023/11/12 03:07:51;;;;;;;3.50;2.72;;;8.60;99.90;;;;;;5097701;28;20079;-67
2023/11/12 03:10:17;;;;;;;3.97;2.85;;;8.60;99.90;;;;;;5098706;28;20108;-66
2023/11/12 03:12:44;;;;;;;4.75;2.90;;;8.70;99.90;;;;;;5095203;28;20050;-67
2023/11/12 03:15:11;;;;;;;3.90;2.47;;;8.70;99.90;;;;;;5103292;28;20043;-67
2023/11/12 03:17:38;;;;;;;5.00;3.60;;;8.70;99.90;;;;;;5094823;28;20031;-67
2023/11/12 03:20:09;;;;;;;3.70;2.70;;;8.80;99.90;;;;;;5086113;28;20844;-67
2023/11/12 03:22:36;;;;;;;5.18;3.53;;;8.80;99.90;;;;;;5094222;28;20492;-67
2023/11/12 03:25:09;;;;;;;5.03;3.00;;;8.80;99.90;;;;;;5102024;28;20032;-67
2023/11/12 03:27:36;;;;;;;3.72;3.10;;;8.80;99.90;;;;;;5093913;28;20032;-67
2023/11/12 03:30:03;;;;;;;3.35;2.67;;;8.80;99.90;;;;;;5100585;28;20106;-66
2023/11/12 03:32:28;;;;;;;5.53;2.90;;;8.80;99.90;;;;;;5094661;28;20027;-67
2023/11/12 03:34:54;;;;;;;3.85;2.75;;;8.80;99.90;;;;;;5101301;28;20028;-67
2023/11/12 03:37:20;;;;;;;5.35;3.00;;;8.90;99.90;;;;;;5096626;27;20093;-66
2023/11/12 03:39:47;;;;;;;6.00;2.53;;;8.90;99.90;;;;;;5100130;28;20107;-66
2023/11/12 03:42:15;;;;;;;3.03;2.20;;;8.90;99.90;;;;;;5098548;28;20035;-67
2023/11/12 03:44:46;;;;;;;4.22;2.92;;;8.90;99.90;;;;;;5080613;28;20122;-67
2023/11/12 03:47:12;;;;;;;4.20;2.63;;;8.90;99.90;;;;;;5084821;28;20476;-67
2023/11/12 03:49:42;;;;;;;3.20;2.53;;;8.90;99.90;;;;;;5095555;28;20126;-67
2023/11/12 03:52:08;;;;;;;3.90;2.60;;;8.90;99.90;;;;;;5097767;28;20073;-66
2023/11/12 03:54:35;;;;;;;4.78;2.90;;;8.90;99.90;;;;;;5099179;28;20031;-67
2023/11/12 03:57:01;;;;;;;3.15;2.25;;;8.90;99.90;;;;;;5098731;28;20028;-66
2023/11/12 03:59:27;;;;;;;3.97;2.95;;;8.90;99.90;;;;;;5100536;28;20028;-67
2023/11/12 04:01:53;;;;;;;4.60;3.20;;;8.90;99.90;;;;;;5096183;28;20047;-67
2023/11/12 04:04:19;;;;;;;3.88;2.65;;;9.00;99.90;;;;;;5100175;28;20023;-67
2023/11/12 04:06:45;;;;;;;2.95;2.33;;;9.00;99.90;;;;;;5079162;28;20056;-67
2023/11/12 04:09:11;;;;;;;4.05;2.72;;;9.00;99.90;;;;;;5100333;28;20034;-67
2023/11/12 04:11:38;;;;;;;2.97;2.47;;;9.00;99.90;;;;;;5097895;28;20032;-67
2023/11/12 04:14:05;;;;;;;5.00;3.03;;;9.00;99.90;;;;;;5099021;28;20050;-67
2023/11/12 04:16:30;;;;;;;5.50;3.20;;;9.00;99.90;;;;;;5098933;28;20042;-68
2023/11/12 04:18:56;;;;;;;5.55;3.13;;;9.00;99.90;;;;;;5099075;28;20036;-68
2023/11/12 04:21:22;;;;;;;4.43;3.00;;;9.00;99.90;;;;;;5100101;28;20035;-68
2023/11/12 04:23:49;;;;;;;4.60;2.70;;;9.00;99.90;;;;;;5097788;28;20153;-67
2023/11/12 04:26:15;;;;;;;4.30;2.60;;;9.00;99.90;;;;;;5101090;28;20043;-68
2023/11/12 04:28:41;;;;;;;5.60;3.60;;;9.00;99.90;;;;;;5092560;28;20078;-68
2023/11/12 04:31:08;;;;;;;6.85;2.80;;;9.00;99.90;;;;;;5107621;28;20506;-68
2023/11/12 04:33:34;;;;;;;3.90;2.65;;;9.00;99.90;;;;;;5088633;28;20460;-68
2023/11/12 04:36:01;;;;;;;5.07;2.95;;;9.00;99.90;;;;;;5100022;28;20125;-68
2023/11/12 04:38:27;;;;;;;3.88;2.75;;;9.00;99.90;;;;;;5095372;28;20807;-68
2023/11/12 04:40:53;;;;;;;4.38;3.00;;;9.00;99.90;;;;;;5099953;28;20043;-68
2023/11/12 04:43:19;;;;;;;3.20;2.55;;;9.00;99.90;;;;;;5094731;28;20024;-68
2023/11/12 04:45:45;;;;;;;4.72;3.22;;;9.00;99.90;;;;;;5099482;28;20031;-68
2023/11/12 04:48:11;;;;;;;5.30;3.25;;;9.00;99.90;;;;;;5099170;28;20633;-68
2023/11/12 04:50:38;;;;;;;5.63;3.80;;;9.00;99.90;;;;;;5102556;28;20061;-68
2023/11/12 04:53:04;;;;;;;4.60;2.97;;;9.00;99.90;;;;;;5101215;28;20107;-68
2023/11/12 04:55:31;;;;;;;3.90;2.92;;;9.00;99.90;;;;;;5102792;28;20051;-68
2023/11/12 04:57:57;;;;;;;3.65;2.80;;;9.00;99.90;;;;;;5101240;28;20028;-68
2023/11/12 05:00:23;;;;;;;7.05;3.03;;;9.00;99.90;;;;;;5103640;28;20024;-68
2023/11/12 05:02:49;;;;;;;7.80;3.35;;;9.00;99.90;;;;;;5097852;28;20121;-68
2023/11/12 05:05:16;;;;;;;4.30;2.85;;;9.00;99.90;;;;;;5102979;28;20104;-68
2023/11/12 05:07:43;;;;;;;3.50;2.72;;;8.90;99.90;;;;;;5099051;28;20575;-68
2023/11/12 05:10:11;;;;;;;3.55;2.65;;;9.00;99.90;;;;;;5104208;28;20028;-69
2023/11/12 05:12:38;;;;;;;4.70;2.88;;;9.00;99.90;;;;;;5106675;28;20783;-69
2023/11/12 05:15:06;;;;;;;4.88;3.20;;;9.00;99.90;;;;;;5097589;28;20070;-69
2023/11/12 05:17:32;;;;;;;4.88;3.63;;;9.00;99.90;;;;;;5094897;28;20033;-69
2023/11/12 05:19:58;;;;;;;4.03;2.92;;;9.00;99.90;;;;;;5100217;28;20373;-69
2023/11/12 05:22:24;;;;;;;3.88;2.95;;;9.00;99.90;;;;;;5108235;28;20027;-69
2023/11/12 05:24:52;;;;;;;3.38;2.90;;;9.00;99.90;;;;;;5093365;28;20040;-69
2023/11/12 05:27:19;;;;;;;4.05;2.67;;;9.00;99.90;;;;;;5095613;28;20032;-69
2023/11/12 05:29:44;;;;;;;6.43;3.90;;;9.00;99.90;;;;;;5105575;28;20120;-69
2023/11/12 05:32:10;;;;;;;6.45;3.85;;;9.00;99.90;;;;;;5099656;28;20483;-69
2023/11/12 05:34:37;;;;;;;6.22;4.40;;;9.00;99.90;;;;;;5108190;28;20399;-69
2023/11/12 05:37:03;;;;;;;5.43;3.60;;;9.10;99.90;;;;;;5099893;28;20055;-69
2023/11/12 05:39:29;;;;;;;6.43;4.13;;;9.10;99.90;;;;;;5104293;27;20755;-69
2023/11/12 05:41:55;;;;;;;7.15;4.07;;;9.00;99.90;;;;;;5107943;28;20020;-70
2023/11/12 05:44:20;;;;;;;6.05;3.70;;;9.00;99.90;;;;;;5104059;28;20595;-69
2023/11/12 05:46:46;;;;;;;6.65;3.95;;;9.00;99.90;;;;;;5099113;28;20044;-69
2023/11/12 05:49:12;;;;;;;4.35;3.47;;;9.00;99.90;;;;;;5104252;28;20070;-69
2023/11/12 05:51:38;;;;;;;5.95;3.80;;;9.00;99.90;;;;;;5095922;28;20038;-69
2023/11/12 05:54:06;;;;;;;6.40;3.58;;;9.00;99.90;;;;;;5099965;28;20352;-69
2023/11/12 05:56:32;;;;;;;5.18;3.60;;;9.00;99.90;;;;;;5102142;28;20036;-69
2023/11/12 05:58:58;;;;;;;11.45;5.65;;;9.00;99.90;;;;;;5098999;28;20032;-69
2023/11/12 06:01:24;;;;;;;8.48;5.18;;;9.00;99.90;;;;;;5097125;28;20168;-69
2023/11/12 06:03:50;;;;;;;9.38;5.00;;;9.00;99.90;;;;;;5106664;28;20030;-69
2023/11/12 06:06:16;;;;;;;8.00;4.95;;;9.00;99.90;;;;;;5099181;28;20177;-69
2023/11/12 06:08:41;;;;;;;6.82;3.72;;;9.00;99.90;;;;;;5100013;28;20879;-70
2023/11/12 06:11:07;;;;;;;5.80;3.97;;;9.00;99.90;;;;;;5105447;28;20032;-69
2023/11/12 06:13:33;;;;;;;7.20;4.28;;;8.90;99.90;;;;;;5104995;28;20647;-70
2023/11/12 06:15:59;;;;;;;5.10;3.58;;;8.90;99.90;;;;;;5092534;28;20032;-69
2023/11/12 06:18:26;;;;;;;5.10;3.70;;;8.90;99.90;;;;;;5096180;28;20436;-69
2023/11/12 06:20:52;;;;;;;7.55;4.00;;;8.90;99.90;;;;;;5096624;28;20031;-69
2023/11/12 06:23:18;;;;;;;7.03;3.95;;;8.90;99.90;;;;;;5098635;28;20023;-69
2023/11/12 06:25:44;;;;;;;5.95;4.18;;;8.90;99.90;;;;;;5105837;28;20032;-69
2023/11/12 06:28:09;;;;;;;7.82;4.50;;;8.90;99.90;;;;;;5097748;28;20027;-69
2023/11/12 06:30:35;;;;;;;6.75;4.03;;;8.90;99.90;;;;;;5103541;28;20119;-69
2023/11/12 06:33:01;;;;;;;6.97;4.47;;;8.90;99.90;;;;;;5100026;27;20035;-69
2023/11/12 06:35:27;;;;;;;8.10;4.13;;;8.90;99.90;;;;;;5100362;28;20039;-69
2023/11/12 06:37:52;;;;;;;7.40;4.22;;;8.90;99.90;;;;;;5105205;28;20058;-69
2023/11/12 06:40:18;;;;;;;10.55;5.32;;;8.90;99.90;;;;;;5102524;28;20158;-69
2023/11/12 06:42:44;;;;;;;10.80;6.35;;;8.90;99.90;;;;;;5097869;28;20088;-69
2023/11/12 06:45:10;;;;;;;7.03;4.70;;;8.90;99.90;;;;;;5097245;28;20111;-69
2023/11/12 06:47:36;;;;;;;8.48;5.18;;;9.00;99.90;;;;;;5101271;28;20072;-69
2023/11/12 06:50:04;;;;;;;9.50;5.40;;;9.00;99.90;;;;;;5106304;28;20036;-69
2023/11/12 06:52:30;;;;;;;7.03;4.53;;;9.00;99.90;;;;;;5105789;28;20050;-69
2023/11/12 06:54:56;;;;;;;7.93;4.68;;;9.00;99.90;;;;;;5105664;27;20055;-69
2023/11/12 06:57:22;;;;;;;8.30;4.95;;;9.10;99.90;;;;;;5096938;28;20066;-69
2023/11/12 06:59:48;;;;;;;8.38;5.25;;;9.00;99.90;;;;;;5094215;28;20051;-69
2023/11/12 07:02:15;;;;;;;9.35;5.15;;;9.00;99.90;;;;;;5102904;28;20424;-69
2023/11/12 07:04:41;;;;;;;9.80;5.03;;;9.00;99.90;;;;;;5100217;28;20032;-69
2023/11/12 07:07:09;;;;;;;9.68;4.82;;;9.00;99.90;;;;;;5101824;28;20060;-69
2023/11/12 07:09:35;;;;;;;8.60;5.10;;;9.00;99.90;;;;;;5100462;28;20039;-69
2023/11/12 07:12:01;;;;;;;10.02;4.78;;;9.00;99.90;;;;;;5102811;28;20100;-69
2023/11/12 07:14:26;;;;;;;7.22;5.00;;;9.10;99.90;;;;;;5105557;28;20043;-69
2023/11/12 07:16:53;;;;;;;7.93;4.35;;;9.10;99.90;;;;;;5099816;28;20106;-69
2023/11/12 07:19:19;;;;;;;9.32;5.13;;;9.10;99.90;;;;;;5100948;28;20016;-69
2023/11/12 07:21:45;;;;;;;7.32;4.88;;;9.10;99.90;;;;;;5098346;28;20437;-68
2023/11/12 07:24:11;;;;;;;7.30;4.93;;;9.20;99.90;;;;;;5104790;28;20842;-68
2023/11/12 07:26:37;;;;;;;8.85;4.38;;;9.20;99.90;;;;;;5098899;28;20038;-69
2023/11/12 07:29:03;;;;;;;9.88;4.80;;;9.20;99.90;;;;;;5104177;28;20547;-68
2023/11/12 07:31:29;;;;;;;8.30;4.43;;;9.20;99.90;;;;;;5104484;28;20559;-68
2023/11/12 07:33:55;;;;;;;8.25;4.35;;;9.30;99.90;;;;;;5096926;28;20042;-69
2023/11/12 07:36:21;;;;;;;7.05;4.28;;;9.30;99.90;;;;;;5097268;28;20457;-68
2023/11/12 07:38:47;;;;;;;7.82;4.60;;;9.20;99.90;;;;;;5097370;28;20143;-69
2023/11/12 07:41:14;;;;;;;8.63;5.25;;;9.30;99.90;;;;;;5088723;28;20114;-69
2023/11/12 07:43:39;;;;;;;6.70;4.95;;;9.30;99.90;;;;;;5096836;28;20110;-68
2023/11/12 07:46:05;;;;;;;9.23;4.65;;;9.30;99.90;;;;;;5103402;28;20048;-69
2023/11/12 07:48:32;;;;;;;9.45;5.13;;;9.30;99.90;;;;;;5100194;28;20023;-68
2023/11/12 07:50:59;;;;;;;9.75;5.70;;;9.30;99.90;;;;;;5096435;28;20585;-68
2023/11/12 07:53:28;;;;;;;8.23;4.97;;;9.30;99.90;;;;;;5105102;28;20483;-68
2023/11/12 07:55:54;;;;;;;9.10;5.05;;;9.30;99.90;;;;;;5096626;28;20036;-68
2023/11/12 07:58:20;;;;;;;6.47;4.45;;;9.30;99.90;;;;;;5097535;28;20034;-69
2023/11/12 08:00:46;;;;;;;7.13;4.70;;;9.30;99.90;;;;;;5105391;28;20031;-68
2023/11/12 08:03:12;;;;;;;7.22;4.72;;;9.30;99.90;;;;;;5105034;28;20023;-68
2023/11/12 08:05:38;;;;;;;9.45;5.97;;;9.30;99.90;;;;;;5102039;28;20547;-68
2023/11/12 08:08:04;;;;;;;8.25;5.28;;;9.40;99.90;;;;;;5101866;28;20036;-68
2023/11/12 08:10:31;;;;;;;9.73;4.90;;;9.40;99.90;;;;;;5099731;28;20032;-68
2023/11/12 08:12:58;;;;;;;8.43;5.22;;;9.40;99.90;;;;;;5099117;28;20047;-68
2023/11/12 08:15:24;;;;;;;11.25;5.43;;;9.40;99.90;;;;;;5092987;28;20035;-68
2023/11/12 08:17:50;;;;;;;9.25;5.45;;;9.40;99.90;;;;;;5096611;28;20032;-69
2023/11/12 08:20:15;;;;;;;9.90;6.05;;;9.40;99.90;;;;;;5099708;28;20091;-69
2023/11/12 08:22:43;;;;;;;9.10;4.75;;;9.50;99.90;;;;;;5098290;28;20106;-68
2023/11/12 08:25:10;;;;;;;7.22;5.05;;;9.40;99.90;;;;;;5104456;28;20024;-68
2023/11/12 08:27:36;;;;;;;8.48;4.60;;;9.50;99.90;;;;;;5103918;28;20748;-68
2023/11/12 08:30:03;;;;;;;7.78;4.75;;;9.50;99.90;;;;;;5097921;28;20038;-68
2023/11/12 08:32:31;;;;;;;8.77;5.47;;;9.40;99.90;;;;;;5093548;28;20032;-68
2023/11/12 08:34:57;;;;;;;8.13;5.03;;;9.50;99.90;;;;;;5083512;28;20032;-68
2023/11/12 08:37:26;;;;;;;8.82;5.25;;;9.50;99.90;;;;;;5092616;28;20032;-68
2023/11/12 08:39:52;;;;;;;8.10;4.85;;;9.50;99.90;;;;;;5095684;28;20024;-68
2023/11/12 08:42:18;;;;;;;7.20;4.40;;;9.50;99.90;;;;;;5092676;28;20027;-68
2023/11/12 08:44:43;;;;;;;7.72;4.68;;;9.60;99.90;;;;;;5096876;28;20043;-68
2023/11/12 08:47:09;;;;;;;9.55;5.22;;;9.60;99.90;;;;;;5088712;28;20048;-68
2023/11/12 08:49:35;;;;;;;9.80;5.70;;;9.60;99.90;;;;;;5103615;28;20051;-68
2023/11/12 08:52:01;;;;;;;9.52;5.43;;;9.60;99.90;;;;;;5098006;28;20047;-68
2023/11/12 08:54:28;;;;;;;10.75;5.93;;;9.60;99.90;;;;;;5098827;28;20035;-68
2023/11/12 08:56:54;;;;;;;8.57;4.75;;;9.60;99.90;;;;;;5094795;28;20086;-68
2023/11/12 08:59:22;;;;;;;12.02;7.35;;;9.70;99.90;;;;;;5103498;28;20027;-68
2023/11/12 09:01:48;;;;;;;7.18;4.78;;;9.70;99.90;;;;;;5103878;28;20027;-69
2023/11/12 09:04:14;;;;;;;7.47;4.68;;;9.70;99.90;;;;;;5096713;28;20507;-68
2023/11/12 09:06:40;;;;;;;8.70;4.80;;;9.70;99.90;;;;;;5097470;28;20068;-68
2023/11/12 09:09:08;;;;;;;7.80;5.28;;;9.70;99.90;;;;;;5103339;28;20043;-68
2023/11/12 09:11:34;;;;;;;11.15;6.03;;;9.70;99.90;;;;;;5097266;28;20038;-68
2023/11/12 09:14:01;;;;;;;10.80;6.00;;;9.80;99.90;;;;;;5093356;28;20031;-69
2023/11/12 09:16:27;;;;;;;8.75;5.57;;;9.80;99.90;;;;;;5097061;28;20035;-68
2023/11/12 09:18:53;;;;;;;12.55;7.03;;;9.80;99.90;;;;;;5095214;28;20031;-68
2023/11/12 09:21:20;;;;;;;15.65;8.70;;;9.80;99.90;;;;;;5091890;28;20460;-68
2023/11/12 09:23:45;;;;;;;21.67;11.48;;;9.90;99.90;;;;;;5088061;28;20031;-68
2023/11/12 09:26:21;;;;;;;18.88;10.80;;;9.80;99.90;;;;;;5091190;28;20024;-66
2023/11/12 09:28:47;;;;;;;16.02;10.10;;;9.90;99.90;;;;;;5100317;28;20807;-65
2023/11/12 09:31:13;;;;;;;15.32;9.40;;;9.90;99.90;;;;;;5092232;28;20024;-66
2023/11/12 09:33:39;;;;;;;16.27;9.80;;;9.90;99.90;;;;;;5096376;28;20036;-68
2023/11/12 09:36:05;;;;;;;13.20;8.85;;;10.00;99.90;;;;;;5102455;28;20042;-67
2023/11/12 09:38:39;;;;;;;14.77;9.70;;;10.00;99.90;;;;;;5099254;28;20427;-67
2023/11/12 09:41:06;;;;;;;14.43;9.52;;;10.10;99.90;;;;;;5089475;28;20028;-67
2023/11/12 09:43:32;;;;;;;15.75;10.50;;;10.10;99.90;;;;;;5091236;28;20044;-67
2023/11/12 09:45:59;;;;;;;15.80;9.30;;;10.20;99.90;;;;;;5098990;28;20043;-67
2023/11/12 09:48:36;;;;;;;19.65;10.57;;;10.30;99.90;;;;;;5097895;28;20039;-67
2023/11/12 09:51:05;;;;;;;14.07;10.05;;;10.30;99.90;;;;;;5104059;28;20077;-67
2023/11/12 09:53:32;;;;;;;15.15;9.27;;;10.40;99.90;;;;;;5097437;28;20119;-67
2023/11/12 09:56:07;;;;;;;15.15;9.55;;;10.50;99.90;;;;;;5098322;28;20031;-67
2023/11/12 09:58:33;;;;;;;17.83;10.20;;;10.50;99.90;;;;;;5086354;28;20028;-67
2023/11/12 10:01:00;;;;;;;15.52;9.15;;;10.60;99.90;;;;;;5101479;28;20062;-67
2023/11/12 10:03:25;;;;;;;16.67;10.57;;;10.70;99.90;;;;;;5089610;28;20127;-67
2023/11/12 10:05:52;;;;;;;16.13;10.02;;;10.70;99.90;;;;;;5098050;28;20138;-67
2023/11/12 10:08:18;;;;;;;14.23;9.63;;;10.80;99.90;;;;;;5098281;28;20035;-67
2023/11/12 10:10:44;;;;;;;23.40;14.05;;;10.90;99.90;;;;;;5105092;28;20117;-68
2023/11/12 10:13:12;;;;;;;21.95;14.02;;;11.00;99.90;;;;;;5097444;28;20035;-67
2023/11/12 10:15:38;;;;;;;17.45;12.73;;;11.00;99.90;;;;;;5092584;28;20420;-67
2023/11/12 10:18:04;;;;;;;16.67;11.60;;;11.10;99.90;;;;;;5090381;28;20028;-68
2023/11/12 10:20:31;;;;;;;13.07;9.18;;;11.10;99.90;;;;;;5102250;28;20084;-67
2023/11/12 10:22:58;;;;;;;15.18;9.52;;;11.20;99.90;;;;;;5105367;28;20368;-68
2023/11/12 10:25:44;;;;;;;14.35;8.43;;;11.20;99.90;;;;;;5104503;28;20719;-67
2023/11/12 10:28:11;;;;;;;13.90;9.20;;;11.10;99.90;;;;;;5088247;28;20024;-67
2023/11/12 10:30:38;;;;;;;11.77;8.75;;;11.10;99.90;;;;;;5098687;28;20039;-69
2023/11/12 10:33:13;;;;;;;13.45;8.48;;;11.20;99.90;;;;;;5101566;27;20050;-65
2023/11/12 10:35:39;;;;;;;11.27;7.65;;;11.20;99.90;;;;;;5099269;28;20106;-65
2023/11/12 10:38:06;;;;;;;11.98;7.95;;;11.20;99.90;;;;;;5105360;28;20043;-65
2023/11/12 10:40:32;;;;;;;10.73;7.32;;;11.20;99.90;;;;;;5092045;28;20024;-65
2023/11/12 10:43:08;;;;;;;16.23;8.50;;;11.20;99.90;;;;;;5090123;28;20109;-65
2023/11/12 10:45:41;;;;;;;10.77;7.68;;;11.20;99.90;;;;;;5084423;28;20484;-65
2023/11/12 10:48:10;;;;;;;12.10;7.60;;;11.30;99.90;;;;;;5088307;28;20785;-65
2023/11/12 10:50:39;;;;;;;13.13;8.00;;;11.30;99.90;;;;;;5089031;28;20047;-65
2023/11/12 10:53:05;;;;;;;11.38;7.15;;;11.40;99.90;;;;;;5098798;28;20027;-65
2023/11/12 10:55:32;;;;;;;9.63;6.13;;;11.40;99.90;;;;;;5100700;28;20032;-65
2023/11/12 10:58:01;;;;;;;14.55;5.82;;;11.30;99.90;;;;;;5096261;28;20086;-64
2023/11/12 11:00:27;;;;;;;8.30;5.07;;;11.20;99.90;;;;;;5095954;28;20062;-65
2023/11/12 11:02:53;;;;;;;9.30;5.72;;;11.20;99.90;;;;;;5087706;28;20694;-65
2023/11/12 11:05:20;;;;;;;11.15;6.70;;;11.10;99.90;;;;;;5092055;28;20427;-66
2023/11/12 11:07:48;;;;;;;9.68;6.53;;;11.00;99.90;;;;;;5088798;28;20035;-65
2023/11/12 11:10:15;;;;;;;9.30;6.43;;;10.80;99.90;;;;;;5087300;28;20016;-66
2023/11/12 11:12:42;;;;;;;11.95;8.07;;;10.80;99.90;;;;;;5103746;28;20032;-66
2023/11/12 11:15:44;;;;;;;11.52;6.70;;;10.70;99.90;;;;;;5096880;28;20039;-65
2023/11/12 11:18:51;;;;;;;10.77;6.63;;;10.70;99.90;;;;;;5102328;28;20043;-66
2023/11/12 11:21:17;;;;;;;13.10;7.72;;;10.70;99.90;;;;;;5088860;28;20046;-66
2023/11/12 11:23:52;;;;;;;12.65;6.50;;;10.70;99.90;;;;;;5105520;28;20032;-67
2023/11/12 11:26:28;;;;;;;9.93;6.68;;;10.70;99.90;;;;;;5097319;28;20031;-66
2023/11/12 11:29:04;;;;;;;12.43;6.68;;;10.70;99.90;;;;;;5099817;28;20031;-66
2023/11/12 11:31:34;;;;;;;8.98;6.50;;;10.80;99.90;;;;;;5096434;28;20043;-66
2023/11/12 11:34:03;;;;;;;9.88;6.82;;;10.80;99.90;;;;;;5105388;28;20031;-65
2023/11/12 11:36:30;;;;;;;10.23;6.00;;;10.80;99.90;;;;;;5100042;28;20097;-66
2023/11/12 11:39:02;;;;;;;10.60;7.43;;;10.80;99.90;;;;;;5099412;28;20031;-65
2023/11/12 11:41:54;;;;;;;9.43;6.00;;;10.90;99.90;;;;;;5087133;28;20169;-65
2023/11/12 11:44:37;;;;;;;9.52;6.13;;;10.90;99.90;;;;;;5093287;28;20451;-66
2023/11/12 11:47:14;;;;;;;6.55;5.05;;;10.80;99.90;;;;;;5093648;28;20078;-66
2023/11/12 11:49:45;;;;;;;8.65;5.30;;;10.80;99.90;;;;;;5102923;28;20543;-65
2023/11/12 11:52:17;;;;;;;9.60;5.57;;;10.90;99.90;;;;;;5105132;28;20047;-65
2023/11/12 11:54:44;;;;;;;6.55;5.00;;;11.00;99.90;;;;;;5088937;28;20041;-66
2023/11/12 11:57:13;;;;;;;8.30;5.85;;;11.10;99.90;;;;;;5102723;28;20036;-66
2023/11/12 11:59:41;;;;;;;8.13;5.53;;;11.20;99.90;;;;;;5096356;28;20031;-66
2023/11/12 12:02:15;;;;;;;6.53;4.57;;;11.20;99.90;;;;;;5089284;28;20074;-66
2023/11/12 12:04:52;;;;;;;10.68;5.20;;;11.10;99.90;;;;;;5097203;28;20039;-66
2023/11/12 12:07:19;;;;;;;6.40;4.78;;;11.10;99.90;;;;;;5086847;28;20418;-66
2023/11/12 12:09:46;;;;;;;6.50;4.88;;;11.10;99.90;;;;;;5084742;28;20505;-67
2023/11/12 12:12:13;;;;;;;6.65;4.85;;;11.10;99.90;;;;;;5088859;28;20641;-66
2023/11/12 12:14:39;;;;;;;8.23;4.47;;;10.90;99.90;;;;;;5085358;28;20665;-66
2023/11/12 12:17:07;;;;;;;9.27;4.75;;;10.80;99.90;;;;;;5088903;28;20044;-66
2023/11/12 12:19:34;;;;;;;5.55;4.43;;;10.70;99.90;;;;;;5084692;28;20024;-67
2023/11/12 12:22:00;;;;;;;32.92;11.70;;;10.70;99.90;;;;;;5092148;28;20020;-67
2023/11/12 12:24:26;;;;;;;34.33;16.15;;;10.70;99.90;;;;;;5101812;28;20044;-66
2023/11/12 12:26:53;;;;;;;12.32;7.57;;;10.70;99.90;;;;;;5089970;28;20741;-67
2023/11/12 12:29:24;;;;;;;7.32;4.90;;;10.70;99.90;;;;;;5092085;28;20039;-66
2023/11/12 12:31:53;;;;;;;4.55;3.53;;;10.70;99.90;;;;;;5083348;28;20036;-66
2023/11/12 12:34:21;;;;;;;6.15;3.65;;;10.80;99.90;;;;;;5096833;28;20031;-67
2023/11/12 12:37:09;;;;;;;5.85;4.68;;;10.80;99.90;;;;;;5096847;28;20039;-65
2023/11/12 12:39:48;;;;;;;7.78;4.78;;;10.90;99.90;;;;;;5101940;28;20044;-65
2023/11/12 12:42:14;;;;;;;8.63;4.28;;;11.00;99.90;;;;;;5097996;28;20024;-65
2023/11/12 12:44:47;;;;;;;8.35;4.90;;;11.10;99.90;;;;;;5103381;28;20085;-65
2023/11/12 12:47:34;;;;;;;6.10;4.28;;;11.10;99.90;;;;;;5090490;28;20032;-66
2023/11/12 12:50:25;;;;;;;6.63;4.15;;;11.20;99.90;;;;;;5096967;28;20032;-65
2023/11/12 12:52:52;;;;;;;12.68;6.22;;;11.10;99.90;;;;;;5095160;28;20761;-66
2023/11/12 12:55:20;;;;;;;8.68;5.38;;;10.90;99.90;;;;;;5092822;28;20020;-66